Kelly, NC (28448)

3:28 PM EDT on July 30, 2014 (GMT -0400)
Elizabethtown (KEYF) Elev 131 ft | 34.60 °N, 78.58 °W | Change Station

Current weather conditions updated 13 minutes ago

Scattered Clouds
Scattered Clouds
84 °F
Feels Like 84 °F
N
0
Wind Variable Wind from North

Today is forecast to be nearly the same temperature as yesterday. Chance of afternoon showers.

Today
High -- | Low -- °F
--% Chance of Precip.
Yesterday
High -- | Low -- °F
Precip. -- in
6:22 AM 8:16 PM
Waxing Crescent, 13% visible
Pressure 30.03 in
Visibility 10.0 miles
Clouds Scattered Clouds 11000 ft
Heat Index 84 °F
Dew Point 61 °F
Humidity 46%
Rainfall 0.00 in
Snow Depth Not available.
UV 8 out of 12
Pollen 4.10 out of 12
Air Quality Not available.
Flu Activity Not available.
METAR KEYF 301915Z AUTO 00000KT 10SM SCT110 29/16 A3003 RMK AO2 T02870161

More Conditions Fewer Conditions

Pressure 30.03 in
Visibility 10.0 miles
Clouds Scattered Clouds 11000 ft
Heat Index 84 °F
Dew Point 61 °F
Humidity 46%
Rainfall 0.00 in
Snow Depth Not available.
UV 8 out of 12
Pollen 4.10 out of 12
Air Quality Not available.
Flu Activity Not available.
METAR KEYF 301915Z AUTO 00000KT 10SM SCT110 29/16 A3003 RMK AO2 T02870161

More Conditions Fewer Conditions

10-Day Weather Forecast

Almanac

Astronomy

Jul. 30, 2014 Rise Set
Actual Time 6:22 AM EDT 8:16 PM EDT
Civil Twilight 5:54 AM EDT 8:44 PM EDT
Nautical Twilight 5:20 AM EDT 9:17 PM EDT
Astronomical Twilight 4:45 AM EDT 9:53 PM EDT
Moon 9:41 AM EDT 10:10 PM EDT
Length of Visible Light 14h 49m
Length of Day
13h 54m
Tomorrow will be 1m 34s shorter.
Waxing Crescent, 13% of the Moon is Illuminated
Today
Waxing Crescent
Aug 3
First Quarter
Aug 10
Full
Aug 17
Last Quarter
Aug 25
New

Today's Extremes

State Highs State Lows

Community

WunderPhotos

Upload Photos

1,739,162 photos uploaded!

WunderBlogs® & News

Nearby

Snow Depth

Station Depth Elevation
No new snow has been reported.

Earthquake Activity

City Distance Mag. Time & Date
No recent earthquake activity has been reported nearby.
Minimum magnitude displayed is 2.5.

Coastal Water Temperatures

Place Temperature
No Stations Reporting

Nearby Weather Stations

Station Location Temp. Heat Index Dew Point Humidity Wind Precip. Elev Updated Type
KD4JRX HORSE BRANCH RD, WATHA, NC 96.3 °F 100 °F 67 °F 38% East  at  1.6 mph 0.00 in / hr 58 ft 3:28 PM EDT Rapid Fire
421 North, Wilmington, NC 84.7 °F 84 °F 59 °F 42% SE  at  2.0 mph 0.00 in / hr 7 ft 3:25 PM EDT Normal
St. Helena, Burgaw, NC 83.3 °F 87 °F 69 °F 62% SSE  at  2.0 mph 0.00 in / hr 49 ft 3:00 PM EDT Normal
Edgewood Community, Burgaw, NC 88.3 °F 89 °F 64 °F 44% ESE  at  8.5 mph 0.00 in / hr 49 ft 3:28 PM EDT Rapid Fire

Show More Stations Show Fewer Stations